Time,TemperatureF,DewpointF,PressureIn,WindDirection,WindDirectionDegrees,WindSpeedMPH,WindSpeedGustMPH,Humidity,HourlyPrecipIn,Conditions,Clouds,dailyrainin,SoftwareType,DateUTC
2013-05-14 00:00:00,53.5,40.0,30.05,ESE,120,0.0,0.0,60,0.00,,,0.00,WeatherCatV1.00B22,2013-05-14 04:00:00,
2013-05-14 00:05:00,53.3,40.2,30.05,ESE,120,0.0,0.0,61,0.00,,,0.00,WeatherCatV1.00B22,2013-05-14 04:05:00,
2013-05-14 00:10:00,53.1,40.8,30.05,ESE,120,0.0,0.0,63,0.00,,,0.00,WeatherCatV1.00B22,2013-05-14 04:10:00,
2013-05-14 00:15:00,52.8,39.7,30.06,SE,133,0.0,1.0,61,0.00,,,0.00,WeatherCatV1.00B22,2013-05-14 04:15:00,
2013-05-14 00:20:00,52.6,41.6,30.06,SSE,154,0.0,0.0,66,0.00,,,0.00,WeatherCatV1.00B22,2013-05-14 04:20:00,
2013-05-14 00:25:00,52.6,42.7,30.06,SSE,157,0.0,0.0,69,0.00,,,0.00,WeatherCatV1.00B22,2013-05-14 04:25:00,
2013-05-14 00:30:00,52.5,43.0,30.06,SSE,157,0.0,0.0,70,0.00,,,0.00,WeatherCatV1.00B22,2013-05-14 04:30:00,
2013-05-14 00:35:00,52.4,42.5,30.06,SSE,157,0.0,0.0,69,0.00,,,0.00,WeatherCatV1.00B22,2013-05-14 04:35:00,
2013-05-14 00:40:00,52.2,42.7,30.06,SSE,157,0.0,0.0,70,0.00,,,0.00,WeatherCatV1.00B22,2013-05-14 04:40:00,
2013-05-14 00:45:00,52.2,42.7,30.06,SSE,157,0.0,0.0,70,0.00,,,0.00,WeatherCatV1.00B22,2013-05-14 04:45:00,
2013-05-14 00:50:00,52.0,42.5,30.06,SSE,157,0.0,0.0,70,0.00,,,0.00,WeatherCatV1.00B22,2013-05-14 04:50:00,
2013-05-14 00:55:00,51.9,41.7,30.06,SSE,157,0.0,0.0,68,0.00,,,0.00,WeatherCatV1.00B22,2013-05-14 04:55:00,
2013-05-14 01:00:00,51.6,42.1,30.07,SSE,158,0.0,1.0,70,0.00,,,0.00,WeatherCatV1.00B22,2013-05-14 05:00:00,
2013-05-14 01:05:00,51.5,42.4,30.07,SSE,165,0.0,0.0,71,0.00,,,0.00,WeatherCatV1.00B22,2013-05-14 05:05:00,
2013-05-14 01:10:00,51.4,42.3,30.07,SSE,166,0.0,0.0,71,0.00,,,0.00,WeatherCatV1.00B22,2013-05-14 05:10:00,
2013-05-14 01:15:00,51.3,42.6,30.07,SSE,166,0.0,0.0,72,0.00,,,0.00,WeatherCatV1.00B22,2013-05-14 05:15:00,
2013-05-14 01:20:00,51.2,42.8,30.07,SSE,166,0.0,0.0,73,0.00,,,0.00,WeatherCatV1.00B22,2013-05-14 05:20:00,
2013-05-14 01:25:00,51.1,42.8,30.07,SSE,166,0.0,0.0,73,0.00,,,0.00,WeatherCatV1.00B22,2013-05-14 05:25:00,
2013-05-14 01:30:00,50.9,42.6,30.06,SSE,166,0.0,0.0,73,0.00,,,0.00,WeatherCatV1.00B22,2013-05-14 05:30:00,
2013-05-14 01:35:00,50.7,42.7,30.06,SSE,166,0.0,0.0,74,0.00,,,0.00,WeatherCatV1.00B22,2013-05-14 05:35:00,
2013-05-14 01:40:00,50.6,42.6,30.07,SSE,166,0.0,0.0,74,0.00,,,0.00,WeatherCatV1.00B22,2013-05-14 05:40:00,
2013-05-14 01:45:00,50.2,42.2,30.07,SSE,166,0.0,0.0,74,0.00,,,0.00,WeatherCatV1.00B22,2013-05-14 05:45:00,
2013-05-14 01:50:00,49.9,41.6,30.07,SSE,166,0.0,0.0,73,0.00,,,0.00,WeatherCatV1.00B22,2013-05-14 05:50:00,
2013-05-14 01:55:00,49.6,42.0,30.07,SSE,166,0.0,0.0,75,0.00,,,0.00,WeatherCatV1.00B22,2013-05-14 05:55:00,
2013-05-14 02:00:00,49.5,40.1,30.07,SSE,166,0.0,0.0,70,0.00,,,0.00,WeatherCatV1.00B22,2013-05-14 06:00:00,
2013-05-14 02:05:00,49.3,39.9,30.06,SSE,166,0.0,0.0,70,0.00,,,0.00,WeatherCatV1.00B22,2013-05-14 06:05:00,
2013-05-14 02:10:00,49.2,40.2,30.07,SSE,166,0.0,0.0,71,0.00,,,0.00,WeatherCatV1.00B22,2013-05-14 06:10:00,
2013-05-14 02:22:00,49.1,40.1,30.07,SSE,167,0.0,0.0,71,0.00,,,0.00,WeatherCatV1.00B22,2013-05-14 06:22:00,
2013-05-14 02:27:00,49.0,40.7,30.07,SSE,167,0.0,0.0,73,0.00,,,0.00,WeatherCatV1.00B22,2013-05-14 06:27:00,
2013-05-14 02:32:00,49.0,41.4,30.07,SSE,167,0.0,0.0,75,0.00,,,0.00,WeatherCatV1.00B22,2013-05-14 06:32:00,
2013-05-14 02:37:00,49.0,41.4,30.07,SSE,167,0.0,0.0,75,0.00,,,0.00,WeatherCatV1.00B22,2013-05-14 06:37:00,
2013-05-14 02:42:00,49.0,41.8,30.06,SSE,167,0.0,0.0,76,0.00,,,0.00,WeatherCatV1.00B22,2013-05-14 06:42:00,
2013-05-14 02:44:00,48.9,41.7,30.06,SSE,167,0.0,0.0,76,0.00,,,0.00,WeatherCatV1.00B22,2013-05-14 06:44:00,
2013-05-14 02:49:00,48.7,41.5,30.07,SSE,167,0.0,0.0,76,0.00,,,0.00,WeatherCatV1.00B22,2013-05-14 06:49:00,
2013-05-14 02:54:00,48.5,41.3,30.06,SSE,167,0.0,0.0,76,0.00,,,0.00,WeatherCatV1.00B22,2013-05-14 06:54:00,
2013-05-14 02:59:00,48.3,41.1,30.06,SSE,167,0.0,0.0,76,0.00,,,0.00,WeatherCatV1.00B22,2013-05-14 06:59:00,
2013-05-14 03:04:00,48.1,40.6,30.06,SSE,167,0.0,0.0,75,0.00,,,0.00,WeatherCatV1.00B22,2013-05-14 07:04:00,
2013-05-14 03:09:00,48.0,40.5,30.06,SSE,167,0.0,0.0,75,0.00,,,0.00,WeatherCatV1.00B22,2013-05-14 07:09:00,
2013-05-14 03:14:00,47.7,40.2,30.06,South,172,0.0,1.0,75,0.00,,,0.00,WeatherCatV1.00B22,2013-05-14 07:14:00,
2013-05-14 03:19:00,47.5,40.7,30.06,South,172,0.0,0.0,77,0.00,,,0.00,WeatherCatV1.00B22,2013-05-14 07:19:00,
2013-05-14 03:24:00,47.3,40.5,30.06,South,172,0.0,0.0,77,0.00,,,0.00,WeatherCatV1.00B22,2013-05-14 07:24:00,
2013-05-14 03:29:00,47.2,40.4,30.06,South,172,0.0,0.0,77,0.00,,,0.00,WeatherCatV1.00B22,2013-05-14 07:29:00,
2013-05-14 03:33:00,47.1,39.9,30.06,South,172,0.0,0.0,76,0.00,,,0.00,WeatherCatV1.00B22,2013-05-14 07:33:00,
2013-05-14 03:38:00,46.9,39.7,30.06,South,172,0.0,1.0,76,0.00,,,0.00,WeatherCatV1.00B22,2013-05-14 07:38:00,
2013-05-14 03:43:00,46.8,40.0,30.06,South,172,0.0,0.0,77,0.00,,,0.00,WeatherCatV1.00B22,2013-05-14 07:43:00,
2013-05-14 03:48:00,46.7,39.9,30.06,South,172,0.0,0.0,77,0.00,,,0.00,WeatherCatV1.00B22,2013-05-14 07:48:00,
2013-05-14 03:53:00,46.7,40.2,30.06,South,172,0.0,0.0,78,0.00,,,0.00,WeatherCatV1.00B22,2013-05-14 07:53:00,
2013-05-14 03:56:00,46.6,39.8,30.06,South,172,0.0,0.0,77,0.00,,,0.00,WeatherCatV1.00B22,2013-05-14 07:56:00,
2013-05-14 04:01:00,46.6,40.1,30.06,South,172,0.0,0.0,78,0.00,,,0.00,WeatherCatV1.00B22,2013-05-14 08:01:00,
2013-05-14 04:06:00,46.5,40.3,30.06,South,172,0.0,0.0,79,0.00,,,0.00,WeatherCatV1.00B22,2013-05-14 08:06:00,
2013-05-14 04:11:00,46.5,40.3,30.06,South,172,0.0,0.0,79,0.00,,,0.00,WeatherCatV1.00B22,2013-05-14 08:11:00,
2013-05-14 04:16:00,46.4,40.2,30.06,South,172,0.0,0.0,79,0.00,,,0.00,WeatherCatV1.00B22,2013-05-14 08:16:00,
2013-05-14 04:21:00,46.4,40.2,30.06,South,172,0.0,0.0,79,0.00,,,0.00,WeatherCatV1.00B22,2013-05-14 08:21:00,
2013-05-14 04:26:00,46.3,39.5,30.06,South,172,0.0,0.0,77,0.00,,,0.00,WeatherCatV1.00B22,2013-05-14 08:26:00,
2013-05-14 04:31:00,46.2,39.4,30.06,South,172,0.0,0.0,77,0.00,,,0.00,WeatherCatV1.00B22,2013-05-14 08:31:00,
2013-05-14 04:36:00,46.2,39.7,30.06,South,172,0.0,0.0,78,0.00,,,0.00,WeatherCatV1.00B22,2013-05-14 08:36:00,
2013-05-14 04:41:00,46.2,40.1,30.06,South,172,0.0,0.0,79,0.00,,,0.00,WeatherCatV1.00B22,2013-05-14 08:41:00,
2013-05-14 04:46:00,46.2,39.4,30.06,South,172,0.0,0.0,77,0.00,,,0.00,WeatherCatV1.00B22,2013-05-14 08:46:00,
2013-05-14 04:51:00,46.1,39.6,30.06,South,172,0.0,0.0,78,0.00,,,0.00,WeatherCatV1.00B22,2013-05-14 08:51:00,
2013-05-14 04:56:00,46.1,39.6,30.06,South,172,0.0,0.0,78,0.00,,,0.00,WeatherCatV1.00B22,2013-05-14 08:56:00,
2013-05-14 05:01:00,46.0,39.5,30.05,South,172,0.0,0.0,78,0.00,,,0.00,WeatherCatV1.00B22,2013-05-14 09:01:00,
2013-05-14 05:06:00,45.9,39.4,30.05,South,172,0.0,0.0,78,0.00,,,0.00,WeatherCatV1.00B22,2013-05-14 09:06:00,
2013-05-14 05:11:00,45.9,39.8,30.05,South,172,0.0,0.0,79,0.00,,,0.00,WeatherCatV1.00B22,2013-05-14 09:11:00,
2013-05-14 05:16:00,45.8,39.7,30.05,South,172,0.0,0.0,79,0.00,,,0.00,WeatherCatV1.00B22,2013-05-14 09:16:00,
2013-05-14 05:21:00,45.7,39.9,30.05,South,172,0.0,0.0,80,0.00,,,0.00,WeatherCatV1.00B22,2013-05-14 09:21:00,
2013-05-14 05:26:00,45.7,40.2,30.06,South,172,0.0,0.0,81,0.00,,,0.00,WeatherCatV1.00B22,2013-05-14 09:26:00,
2013-05-14 05:31:00,45.6,40.7,30.06,South,172,0.0,0.0,83,0.00,,,0.00,WeatherCatV1.00B22,2013-05-14 09:31:00,
2013-05-14 05:36:00,45.7,41.1,30.06,South,172,0.0,0.0,84,0.00,,,0.00,WeatherCatV1.00B22,2013-05-14 09:36:00,
2013-05-14 05:41:00,45.7,40.8,30.05,South,172,0.0,0.0,83,0.00,,,0.00,WeatherCatV1.00B22,2013-05-14 09:41:00,
2013-05-14 05:46:00,45.6,40.4,30.06,South,172,0.0,0.0,82,0.00,,,0.00,WeatherCatV1.00B22,2013-05-14 09:46:00,
2013-05-14 05:51:00,45.4,39.9,30.06,South,172,0.0,0.0,81,0.00,,,0.00,WeatherCatV1.00B22,2013-05-14 09:51:00,
2013-05-14 05:56:00,45.3,39.8,30.06,South,172,0.0,0.0,81,0.00,,,0.00,WeatherCatV1.00B22,2013-05-14 09:56:00,
2013-05-14 06:01:00,45.2,39.7,30.06,South,172,0.0,0.0,81,0.00,,,0.00,WeatherCatV1.00B22,2013-05-14 10:01:00,
2013-05-14 06:06:00,45.0,39.2,30.06,South,172,0.0,0.0,80,0.00,,,0.00,WeatherCatV1.00B22,2013-05-14 10:06:00,
2013-05-14 06:11:00,44.8,38.7,30.06,South,172,0.0,0.0,79,0.00,,,0.00,WeatherCatV1.00B22,2013-05-14 10:11:00,
2013-05-14 06:16:00,44.7,38.9,30.06,South,172,0.0,0.0,80,0.00,,,0.00,WeatherCatV1.00B22,2013-05-14 10:16:00,
2013-05-14 06:21:00,44.6,39.1,30.06,South,172,0.0,0.0,81,0.00,,,0.00,WeatherCatV1.00B22,2013-05-14 10:21:00,
2013-05-14 06:26:00,44.5,39.4,30.07,South,173,0.0,0.0,82,0.00,,,0.00,WeatherCatV1.00B22,2013-05-14 10:26:00,
2013-05-14 06:31:00,44.4,39.6,30.07,South,173,0.0,0.0,83,0.00,,,0.00,WeatherCatV1.00B22,2013-05-14 10:31:00,
2013-05-14 06:36:00,44.4,39.3,30.07,South,173,0.0,0.0,82,0.00,,,0.00,WeatherCatV1.00B22,2013-05-14 10:36:00,
2013-05-14 06:41:00,44.2,38.7,30.07,South,173,0.0,0.0,81,0.00,,,0.00,WeatherCatV1.00B22,2013-05-14 10:41:00,
2013-05-14 06:46:00,44.1,38.6,30.08,South,173,0.0,0.0,81,0.00,,,0.00,WeatherCatV1.00B22,2013-05-14 10:46:00,
2013-05-14 06:51:00,44.1,39.3,30.08,South,186,0.0,0.0,83,0.00,,,0.00,WeatherCatV1.00B22,2013-05-14 10:51:00,
2013-05-14 06:56:00,44.2,39.1,30.08,South,186,0.0,0.0,82,0.00,,,0.00,WeatherCatV1.00B22,2013-05-14 10:56:00,
2013-05-14 07:01:00,44.3,38.8,30.08,South,186,0.0,0.0,81,0.00,,,0.00,WeatherCatV1.00B22,2013-05-14 11:01:00,
2013-05-14 07:06:00,44.6,39.5,30.09,South,186,0.0,0.0,82,0.00,,,0.00,WeatherCatV1.00B22,2013-05-14 11:06:00,
2013-05-14 07:11:00,45.0,39.5,30.09,South,186,0.0,0.0,81,0.00,,,0.00,WeatherCatV1.00B22,2013-05-14 11:11:00,
2013-05-14 07:16:00,45.2,39.1,30.09,South,190,0.0,0.0,79,0.00,,,0.00,WeatherCatV1.00B22,2013-05-14 11:16:00,
2013-05-14 07:21:00,45.3,38.9,30.09,South,190,0.0,0.0,78,0.00,,,0.00,WeatherCatV1.00B22,2013-05-14 11:21:00,
2013-05-14 07:26:00,45.5,39.0,30.09,South,190,0.0,0.0,78,0.00,,,0.00,WeatherCatV1.00B22,2013-05-14 11:26:00,
2013-05-14 07:31:00,45.8,40.0,30.09,South,190,0.0,0.0,80,0.00,,,0.00,WeatherCatV1.00B22,2013-05-14 11:31:00,
2013-05-14 07:36:00,46.0,39.9,30.09,South,190,0.0,0.0,79,0.00,,,0.00,WeatherCatV1.00B22,2013-05-14 11:36:00,
2013-05-14 07:41:00,46.3,39.8,30.09,South,190,0.0,0.0,78,0.00,,,0.00,WeatherCatV1.00B22,2013-05-14 11:41:00,
2013-05-14 07:46:00,46.5,39.3,30.10,South,190,0.0,0.0,76,0.00,,,0.00,WeatherCatV1.00B22,2013-05-14 11:46:00,
2013-05-14 07:51:00,46.7,39.9,30.10,South,190,0.0,0.0,77,0.00,,,0.00,WeatherCatV1.00B22,2013-05-14 11:51:00,
2013-05-14 07:56:00,47.0,40.8,30.10,SSE,153,0.0,1.0,79,0.00,,,0.00,WeatherCatV1.00B22,2013-05-14 11:56:00,
2013-05-14 08:01:00,47.3,40.5,30.10,SSE,153,0.0,0.0,77,0.00,,,0.00,WeatherCatV1.00B22,2013-05-14 12:01:00,
2013-05-14 08:06:00,47.5,39.6,30.10,SSE,158,0.0,1.0,74,0.00,,,0.00,WeatherCatV1.00B22,2013-05-14 12:06:00,
2013-05-14 08:11:00,47.8,40.3,30.10,SSE,158,0.0,0.0,75,0.00,,,0.00,WeatherCatV1.00B22,2013-05-14 12:11:00,
2013-05-14 08:16:00,48.1,39.9,30.10,SSE,158,0.0,0.0,73,0.00,,,0.00,WeatherCatV1.00B22,2013-05-14 12:16:00,
2013-05-14 08:21:00,48.4,40.1,30.11,SSE,161,0.0,0.0,73,0.00,,,0.00,WeatherCatV1.00B22,2013-05-14 12:21:00,
2013-05-14 08:26:00,48.7,40.8,30.11,SSE,161,0.0,0.0,74,0.00,,,0.00,WeatherCatV1.00B22,2013-05-14 12:26:00,
2013-05-14 08:31:00,49.1,41.5,30.11,SSE,161,0.0,0.0,75,0.00,,,0.00,WeatherCatV1.00B22,2013-05-14 12:31:00,
2013-05-14 08:36:00,49.7,42.4,30.11,SSE,161,0.0,0.0,76,0.00,,,0.00,WeatherCatV1.00B22,2013-05-14 12:36:00,
2013-05-14 08:41:00,50.3,42.3,30.11,SSE,161,0.0,0.0,74,0.00,,,0.00,WeatherCatV1.00B22,2013-05-14 12:41:00,
2013-05-14 08:46:00,50.8,42.5,30.12,ESE,115,0.0,1.0,73,0.00,,,0.00,WeatherCatV1.00B22,2013-05-14 12:46:00,
2013-05-14 08:51:00,51.3,42.9,30.12,ESE,109,0.0,1.0,73,0.00,,,0.00,WeatherCatV1.00B22,2013-05-14 12:51:00,
2013-05-14 08:56:00,51.7,43.7,30.12,ESE,109,0.0,0.0,74,0.00,,,0.00,WeatherCatV1.00B22,2013-05-14 12:56:00,
2013-05-14 09:01:00,52.2,44.2,30.12,ESE,109,0.0,0.0,74,0.00,,,0.00,WeatherCatV1.00B22,2013-05-14 13:01:00,
2013-05-14 09:06:00,52.6,43.8,30.11,ESE,109,0.0,0.0,72,0.00,,,0.00,WeatherCatV1.00B22,2013-05-14 13:06:00,
2013-05-14 09:11:00,53.0,43.9,30.11,ESE,109,0.0,1.0,71,0.00,,,0.00,WeatherCatV1.00B22,2013-05-14 13:11:00,
2013-05-14 09:16:00,53.5,44.0,30.12,ESE,107,0.0,0.0,70,0.00,,,0.00,WeatherCatV1.00B22,2013-05-14 13:16:00,
2013-05-14 09:21:00,54.0,43.7,30.12,ESE,107,0.0,1.0,68,0.00,,,0.00,WeatherCatV1.00B22,2013-05-14 13:21:00,
2013-05-14 09:26:00,54.4,43.7,30.11,ESE,107,0.0,0.0,67,0.00,,,0.00,WeatherCatV1.00B22,2013-05-14 13:26:00,
2013-05-14 09:31:00,54.9,44.1,30.12,ESE,107,0.0,1.0,67,0.00,,,0.00,WeatherCatV1.00B22,2013-05-14 13:31:00,
2013-05-14 09:36:00,55.5,44.7,30.11,ESE,107,0.0,0.0,67,0.00,,,0.00,WeatherCatV1.00B22,2013-05-14 13:36:00,
2013-05-14 09:41:00,56.0,44.8,30.11,ESE,107,0.0,0.0,66,0.00,,,0.00,WeatherCatV1.00B22,2013-05-14 13:41:00,
2013-05-14 09:46:00,56.4,45.6,30.11,ESE,107,1.0,1.0,67,0.00,,,0.00,WeatherCatV1.00B22,2013-05-14 13:46:00,
2013-05-14 09:51:00,56.9,45.7,30.11,ESE,106,0.0,0.0,66,0.00,,,0.00,WeatherCatV1.00B22,2013-05-14 13:51:00,
2013-05-14 09:56:00,57.3,46.0,30.11,ESE,106,0.0,0.0,66,0.00,,,0.00,WeatherCatV1.00B22,2013-05-14 13:56:00,
2013-05-14 10:01:00,57.7,46.8,30.11,ESE,106,0.0,1.0,67,0.00,,,0.00,WeatherCatV1.00B22,2013-05-14 14:01:00,
2013-05-14 10:06:00,58.2,47.3,30.11,ESE,106,0.0,1.0,67,0.00,,,0.00,WeatherCatV1.00B22,2013-05-14 14:06:00,
2013-05-14 10:11:00,58.8,47.9,30.11,ESE,105,0.0,1.0,67,0.00,,,0.00,WeatherCatV1.00B22,2013-05-14 14:11:00,
2013-05-14 10:16:00,59.3,48.3,30.11,ESE,105,1.0,1.0,67,0.00,,,0.00,WeatherCatV1.00B22,2013-05-14 14:16:00,
2013-05-14 10:21:00,59.9,48.1,30.11,ESE,105,0.0,0.0,65,0.00,,,0.00,WeatherCatV1.00B22,2013-05-14 14:21:00,
2013-05-14 10:26:00,60.6,47.9,30.11,ESE,105,0.0,1.0,63,0.00,,,0.00,WeatherCatV1.00B22,2013-05-14 14:26:00,
2013-05-14 10:31:00,61.3,47.3,30.12,ESE,103,2.0,2.0,60,0.00,,,0.00,WeatherCatV1.00B22,2013-05-14 14:31:00,
2013-05-14 10:36:00,61.8,47.3,30.11,ESE,103,0.0,1.0,59,0.00,,,0.00,WeatherCatV1.00B22,2013-05-14 14:36:00,
2013-05-14 10:42:00,62.2,45.8,30.11,ESE,103,0.0,1.0,55,0.00,,,0.00,WeatherCatV1.00B22,2013-05-14 14:42:00,
2013-05-14 10:47:00,62.9,46.0,30.11,ESE,103,0.0,0.0,54,0.00,,,0.00,WeatherCatV1.00B22,2013-05-14 14:47:00,
2013-05-14 10:52:00,63.5,46.1,30.11,ESE,103,0.0,0.0,53,0.00,,,0.00,WeatherCatV1.00B22,2013-05-14 14:52:00,
2013-05-14 10:57:00,64.2,47.7,30.12,ESE,103,0.0,0.0,55,0.00,,,0.00,WeatherCatV1.00B22,2013-05-14 14:57:00,
2013-05-14 11:02:00,64.7,47.2,30.12,East,101,0.0,0.0,53,0.00,,,0.00,WeatherCatV1.00B22,2013-05-14 15:02:00,
2013-05-14 11:07:00,65.1,44.4,30.12,East,100,0.0,1.0,47,0.00,,,0.00,WeatherCatV1.00B22,2013-05-14 15:07:00,
2013-05-14 11:12:00,65.6,45.4,30.12,East,81,0.0,1.0,48,0.00,,,0.00,WeatherCatV1.00B22,2013-05-14 15:12:00,
2013-05-14 11:17:00,66.0,44.0,30.12,East,82,0.0,1.0,45,0.00,,,0.00,WeatherCatV1.00B22,2013-05-14 15:17:00,
2013-05-14 11:22:00,66.6,44.6,30.12,East,81,0.0,1.0,45,0.00,,,0.00,WeatherCatV1.00B22,2013-05-14 15:22:00,
2013-05-14 11:27:00,67.2,46.8,30.12,East,82,1.0,2.0,48,0.00,,,0.00,WeatherCatV1.00B22,2013-05-14 15:27:00,
2013-05-14 11:32:00,67.2,43.3,30.11,East,82,0.0,1.0,42,0.00,,,0.00,WeatherCatV1.00B22,2013-05-14 15:32:00,
2013-05-14 11:37:00,67.2,45.7,30.12,ENE,78,0.0,1.0,46,0.00,,,0.00,WeatherCatV1.00B22,2013-05-14 15:37:00,
2013-05-14 11:42:00,67.6,46.1,30.11,SE,129,1.0,1.0,46,0.00,,,0.00,WeatherCatV1.00B22,2013-05-14 15:42:00,
2013-05-14 11:47:00,67.9,45.8,30.11,SE,125,1.0,1.0,45,0.00,,,0.00,WeatherCatV1.00B22,2013-05-14 15:47:00,
2013-05-14 11:52:00,68.1,45.4,30.11,SE,125,0.0,1.0,44,0.00,,,0.00,WeatherCatV1.00B22,2013-05-14 15:52:00,
2013-05-14 11:57:00,68.2,47.8,30.11,ESE,122,0.0,0.0,48,0.00,,,0.00,WeatherCatV1.00B22,2013-05-14 15:57:00,
2013-05-14 12:02:00,68.2,46.6,30.11,NNW,327,0.0,1.0,46,0.00,,,0.00,WeatherCatV1.00B22,2013-05-14 16:02:00,
2013-05-14 12:07:00,68.2,47.2,30.11,WSW,248,0.0,1.0,47,0.00,,,0.00,WeatherCatV1.00B22,2013-05-14 16:07:00,
2013-05-14 12:12:00,68.7,46.5,30.11,SE,131,1.0,1.0,45,0.00,,,0.00,WeatherCatV1.00B22,2013-05-14 16:12:00,
2013-05-14 12:17:00,69.2,46.3,30.10,North,5,2.0,3.0,44,0.00,,,0.00,WeatherCatV1.00B22,2013-05-14 16:17:00,
2013-05-14 12:22:00,69.2,46.3,30.11,NNW,346,1.0,2.0,44,0.00,,,0.00,WeatherCatV1.00B22,2013-05-14 16:22:00,
2013-05-14 12:27:00,69.2,44.5,30.11,East,82,3.0,3.0,41,0.00,,,0.00,WeatherCatV1.00B22,2013-05-14 16:27:00,
2013-05-14 12:32:00,69.7,46.8,30.10,SW,233,0.0,3.0,44,0.00,,,0.00,WeatherCatV1.00B22,2013-05-14 16:32:00,
2013-05-14 12:37:00,70.2,45.4,30.10,NW,307,0.0,2.0,41,0.00,,,0.00,WeatherCatV1.00B22,2013-05-14 16:37:00,
2013-05-14 12:42:00,70.3,49.1,30.10,East,82,1.0,3.0,47,0.00,,,0.00,WeatherCatV1.00B22,2013-05-14 16:42:00,
2013-05-14 12:47:00,70.4,46.2,30.10,NNW,330,0.0,2.0,42,0.00,,,0.00,WeatherCatV1.00B22,2013-05-14 16:47:00,
2013-05-14 12:52:00,70.2,46.0,30.10,West,281,1.0,3.0,42,0.00,,,0.00,WeatherCatV1.00B22,2013-05-14 16:52:00,
2013-05-14 12:57:00,70.3,46.1,30.10,NW,306,2.0,2.0,42,0.00,,,0.00,WeatherCatV1.00B22,2013-05-14 16:57:00,
2013-05-14 13:02:00,70.5,48.1,30.09,NW,304,0.0,1.0,45,0.00,,,0.00,WeatherCatV1.00B22,2013-05-14 17:02:00,
2013-05-14 13:07:00,70.7,47.7,30.09,West,277,1.0,2.0,44,0.00,,,0.00,WeatherCatV1.00B22,2013-05-14 17:07:00,
2013-05-14 13:12:00,71.2,47.5,30.09,SW,236,2.0,2.0,43,0.00,,,0.00,WeatherCatV1.00B22,2013-05-14 17:12:00,
2013-05-14 13:17:00,71.3,48.2,30.09,NW,311,2.0,2.0,44,0.00,,,0.00,WeatherCatV1.00B22,2013-05-14 17:17:00,
2013-05-14 13:22:00,71.3,49.4,30.09,NNW,327,1.0,1.0,46,0.00,,,0.00,WeatherCatV1.00B22,2013-05-14 17:22:00,
2013-05-14 13:27:00,71.1,48.1,30.08,East,87,1.0,2.0,44,0.00,,,0.00,WeatherCatV1.00B22,2013-05-14 17:27:00,
2013-05-14 13:32:00,71.4,51.2,30.08,ESE,113,1.0,3.0,49,0.00,,,0.00,WeatherCatV1.00B22,2013-05-14 17:32:00,
2013-05-14 13:37:00,71.8,50.5,30.08,SW,234,0.0,1.0,47,0.00,,,0.00,WeatherCatV1.00B22,2013-05-14 17:37:00,
2013-05-14 13:42:00,71.8,49.3,30.07,NNW,346,0.0,2.0,45,0.00,,,0.00,WeatherCatV1.00B22,2013-05-14 17:42:00,
2013-05-14 13:47:00,72.1,49.0,30.07,NNW,335,2.0,2.0,44,0.00,,,0.00,WeatherCatV1.00B22,2013-05-14 17:47:00,
2013-05-14 13:52:00,72.5,49.9,30.07,NW,311,0.0,2.0,45,0.00,,,0.00,WeatherCatV1.00B22,2013-05-14 17:52:00,
2013-05-14 13:57:00,72.4,49.8,30.07,ESE,104,1.0,2.0,45,0.00,,,0.00,WeatherCatV1.00B22,2013-05-14 17:57:00,
2013-05-14 14:02:00,72.6,51.2,30.07,North,0,0.0,3.0,47,0.00,,,0.00,WeatherCatV1.00B22,2013-05-14 18:02:00,
2013-05-14 14:07:00,72.6,47.5,30.06,NNE,29,0.0,1.0,41,0.00,,,0.00,WeatherCatV1.00B22,2013-05-14 18:07:00,
2013-05-14 14:12:00,72.8,49.6,30.06,ESE,115,0.0,3.0,44,0.00,,,0.00,WeatherCatV1.00B22,2013-05-14 18:12:00,
2013-05-14 14:17:00,73.1,51.7,30.06,WSW,252,1.0,1.0,47,0.00,,,0.00,WeatherCatV1.00B22,2013-05-14 18:17:00,
2013-05-14 14:22:00,73.2,54.0,30.05,ESE,122,1.0,1.0,51,0.00,,,0.00,WeatherCatV1.00B22,2013-05-14 18:22:00,
2013-05-14 14:27:00,73.4,52.5,30.05,SE,145,0.0,1.0,48,0.00,,,0.00,WeatherCatV1.00B22,2013-05-14 18:27:00,
2013-05-14 14:32:00,73.5,52.0,30.05,SSE,151,0.0,2.0,47,0.00,,,0.00,WeatherCatV1.00B22,2013-05-14 18:32:00,
2013-05-14 14:37:00,73.6,49.7,30.05,SW,226,0.0,1.0,43,0.00,,,0.00,WeatherCatV1.00B22,2013-05-14 18:37:00,
2013-05-14 14:42:00,73.6,52.7,30.05,WNW,292,0.0,1.0,48,0.00,,,0.00,WeatherCatV1.00B22,2013-05-14 18:42:00,
2013-05-14 14:47:00,73.5,52.6,30.04,West,263,1.0,1.0,48,0.00,,,0.00,WeatherCatV1.00B22,2013-05-14 18:47:00,
2013-05-14 14:52:00,73.6,50.9,30.04,NNE,17,1.0,2.0,45,0.00,,,0.00,WeatherCatV1.00B22,2013-05-14 18:52:00,
2013-05-14 14:57:00,73.4,50.8,30.03,North,355,0.0,1.0,45,0.00,,,0.00,WeatherCatV1.00B22,2013-05-14 18:57:00,
2013-05-14 15:02:00,73.5,53.7,30.03,NNW,333,1.0,1.0,50,0.00,,,0.00,WeatherCatV1.00B22,2013-05-14 19:02:00,
2013-05-14 15:07:00,73.7,52.8,30.03,NNW,327,0.0,1.0,48,0.00,,,0.00,WeatherCatV1.00B22,2013-05-14 19:07:00,
2013-05-14 15:12:00,73.8,52.9,30.03,SSW,206,1.0,3.0,48,0.00,,,0.00,WeatherCatV1.00B22,2013-05-14 19:12:00,
2013-05-14 15:17:00,74.0,53.6,30.03,North,5,1.0,2.0,49,0.00,,,0.00,WeatherCatV1.00B22,2013-05-14 19:17:00,
2013-05-14 15:22:00,74.0,53.6,30.02,SSE,163,2.0,4.0,49,0.00,,,0.00,WeatherCatV1.00B22,2013-05-14 19:22:00,
2013-05-14 15:27:00,74.4,53.4,30.02,South,175,1.0,1.0,48,0.00,,,0.00,WeatherCatV1.00B22,2013-05-14 19:27:00,
2013-05-14 15:32:00,74.9,55.0,30.02,ENE,65,0.0,2.0,50,0.00,,,0.00,WeatherCatV1.00B22,2013-05-14 19:32:00,
2013-05-14 15:37:00,74.9,54.4,30.01,North,355,0.0,1.0,49,0.00,,,0.00,WeatherCatV1.00B22,2013-05-14 19:37:00,
2013-05-14 15:42:00,75.1,55.2,30.01,SSW,194,0.0,3.0,50,0.00,,,0.00,WeatherCatV1.00B22,2013-05-14 19:42:00,
2013-05-14 15:47:00,75.3,54.8,30.01,WSW,246,1.0,2.0,49,0.00,,,0.00,WeatherCatV1.00B22,2013-05-14 19:47:00,
2013-05-14 15:52:00,75.4,54.3,30.00,SSE,156,1.0,1.0,48,0.00,,,0.00,WeatherCatV1.00B22,2013-05-14 19:52:00,
2013-05-14 15:57:00,75.6,54.5,30.00,East,100,2.0,2.0,48,0.00,,,0.00,WeatherCatV1.00B22,2013-05-14 19:57:00,
2013-05-14 16:02:00,75.8,55.8,30.00,NNE,30,2.0,2.0,50,0.00,,,0.00,WeatherCatV1.00B22,2013-05-14 20:02:00,
2013-05-14 16:07:00,75.8,54.7,30.00,SSE,153,0.0,3.0,48,0.00,,,0.00,WeatherCatV1.00B22,2013-05-14 20:07:00,
2013-05-14 16:12:00,75.8,54.7,30.00,South,187,1.0,3.0,48,0.00,,,0.00,WeatherCatV1.00B22,2013-05-14 20:12:00,
2013-05-14 16:17:00,75.8,54.7,30.00,WNW,289,2.0,2.0,48,0.00,,,0.00,WeatherCatV1.00B22,2013-05-14 20:17:00,
2013-05-14 16:22:00,75.9,54.8,30.00,East,82,2.0,2.0,48,0.00,,,0.00,WeatherCatV1.00B22,2013-05-14 20:22:00,
2013-05-14 16:27:00,76.0,54.3,29.99,ENE,67,0.0,1.0,47,0.00,,,0.00,WeatherCatV1.00B22,2013-05-14 20:27:00,
2013-05-14 16:32:00,76.1,55.0,29.99,WSW,247,5.0,5.0,48,0.00,,,0.00,WeatherCatV1.00B22,2013-05-14 20:32:00,
2013-05-14 16:37:00,76.0,54.3,29.99,SSE,168,0.0,2.0,47,0.00,,,0.00,WeatherCatV1.00B22,2013-05-14 20:37:00,
2013-05-14 16:42:00,76.0,54.9,29.99,ENE,74,3.0,3.0,48,0.00,,,0.00,WeatherCatV1.00B22,2013-05-14 20:42:00,
2013-05-14 16:47:00,75.9,54.2,29.99,West,271,1.0,3.0,47,0.00,,,0.00,WeatherCatV1.00B22,2013-05-14 20:47:00,
2013-05-14 16:52:00,75.8,55.3,29.99,North,9,1.0,3.0,49,0.00,,,0.00,WeatherCatV1.00B22,2013-05-14 20:52:00,
2013-05-14 16:57:00,75.7,55.7,29.99,WNW,294,0.0,2.0,50,0.00,,,0.00,WeatherCatV1.00B22,2013-05-14 20:57:00,
2013-05-14 17:02:00,75.6,55.6,29.99,ENE,69,1.0,2.0,50,0.00,,,0.00,WeatherCatV1.00B22,2013-05-14 21:02:00,
2013-05-14 17:07:00,75.5,55.0,29.99,SSE,151,1.0,3.0,49,0.00,,,0.00,WeatherCatV1.00B22,2013-05-14 21:07:00,
2013-05-14 17:12:00,75.5,54.4,29.98,SSW,198,1.0,4.0,48,0.00,,,0.00,WeatherCatV1.00B22,2013-05-14 21:12:00,
2013-05-14 17:17:00,75.6,56.2,29.98,SSE,163,0.0,3.0,51,0.00,,,0.00,WeatherCatV1.00B22,2013-05-14 21:17:00,
2013-05-14 17:22:00,75.6,53.9,29.98,NW,316,0.0,1.0,47,0.00,,,0.00,WeatherCatV1.00B22,2013-05-14 21:22:00,
2013-05-14 17:27:00,75.7,55.2,29.98,NNW,344,0.0,1.0,49,0.00,,,0.00,WeatherCatV1.00B22,2013-05-14 21:27:00,
2013-05-14 17:32:00,75.6,55.1,29.98,North,351,0.0,1.0,49,0.00,,,0.00,WeatherCatV1.00B22,2013-05-14 21:32:00,
2013-05-14 17:37:00,75.5,53.8,29.98,NW,311,0.0,1.0,47,0.00,,,0.00,WeatherCatV1.00B22,2013-05-14 21:37:00,
2013-05-14 17:42:00,75.5,55.0,29.98,NNW,348,0.0,1.0,49,0.00,,,0.00,WeatherCatV1.00B22,2013-05-14 21:42:00,
2013-05-14 17:47:00,75.3,54.2,29.97,South,173,0.0,1.0,48,0.00,,,0.00,WeatherCatV1.00B22,2013-05-14 21:47:00,
2013-05-14 17:52:00,75.3,55.4,29.97,SE,134,0.0,2.0,50,0.00,,,0.00,WeatherCatV1.00B22,2013-05-14 21:52:00,
2013-05-14 17:57:00,75.3,54.8,29.97,WNW,286,1.0,2.0,49,0.00,,,0.00,WeatherCatV1.00B22,2013-05-14 21:57:00,
2013-05-14 18:02:00,75.2,55.3,29.97,NNE,22,0.0,1.0,50,0.00,,,0.00,WeatherCatV1.00B22,2013-05-14 22:02:00,
2013-05-14 18:07:00,75.2,54.7,29.97,ESE,117,1.0,3.0,49,0.00,,,0.00,WeatherCatV1.00B22,2013-05-14 22:07:00,
2013-05-14 18:12:00,75.2,55.8,29.97,SE,124,0.0,0.0,51,0.00,,,0.00,WeatherCatV1.00B22,2013-05-14 22:12:00,
2013-05-14 18:17:00,75.0,56.2,29.97,WSW,238,1.0,2.0,52,0.00,,,0.00,WeatherCatV1.00B22,2013-05-14 22:17:00,
2013-05-14 18:22:00,74.9,56.1,29.97,ENE,76,1.0,2.0,52,0.00,,,0.00,WeatherCatV1.00B22,2013-05-14 22:22:00,
2013-05-14 18:27:00,74.9,56.1,29.97,SE,141,0.0,2.0,52,0.00,,,0.00,WeatherCatV1.00B22,2013-05-14 22:27:00,
2013-05-14 18:32:00,74.8,55.4,29.96,SW,227,2.0,2.0,51,0.00,,,0.00,WeatherCatV1.00B22,2013-05-14 22:32:00,
2013-05-14 18:37:00,74.7,55.9,29.96,NNW,344,0.0,2.0,52,0.00,,,0.00,WeatherCatV1.00B22,2013-05-14 22:37:00,
2013-05-14 18:42:00,74.6,55.8,29.96,ENE,62,1.0,1.0,52,0.00,,,0.00,WeatherCatV1.00B22,2013-05-14 22:42:00,
2013-05-14 18:47:00,74.4,56.1,29.96,North,355,0.0,2.0,53,0.00,,,0.00,WeatherCatV1.00B22,2013-05-14 22:47:00,
2013-05-14 18:52:00,74.2,56.0,29.96,East,96,0.0,0.0,53,0.00,,,0.00,WeatherCatV1.00B22,2013-05-14 22:52:00,
2013-05-14 18:57:00,74.1,55.3,29.96,West,281,0.0,1.0,52,0.00,,,0.00,WeatherCatV1.00B22,2013-05-14 22:57:00,
2013-05-14 19:02:00,74.1,55.9,29.96,East,94,0.0,1.0,53,0.00,,,0.00,WeatherCatV1.00B22,2013-05-14 23:02:00,
2013-05-14 19:07:00,74.0,55.8,29.96,ENE,60,0.0,1.0,53,0.00,,,0.00,WeatherCatV1.00B22,2013-05-14 23:07:00,
2013-05-14 19:12:00,73.9,55.7,29.96,SE,146,0.0,2.0,53,0.00,,,0.00,WeatherCatV1.00B22,2013-05-14 23:12:00,
2013-05-14 19:17:00,73.8,55.1,29.96,SSW,193,0.0,1.0,52,0.00,,,0.00,WeatherCatV1.00B22,2013-05-14 23:17:00,
2013-05-14 19:22:00,73.7,55.0,29.96,South,169,0.0,0.0,52,0.00,,,0.00,WeatherCatV1.00B22,2013-05-14 23:22:00,
2013-05-14 19:27:00,73.7,55.0,29.96,SSE,149,0.0,0.0,52,0.00,,,0.00,WeatherCatV1.00B22,2013-05-14 23:27:00,
2013-05-14 19:32:00,73.5,54.8,29.95,NW,304,0.0,0.0,52,0.00,,,0.00,WeatherCatV1.00B22,2013-05-14 23:32:00,
2013-05-14 19:37:00,73.4,54.7,29.95,NW,321,1.0,1.0,52,0.00,,,0.00,WeatherCatV1.00B22,2013-05-14 23:37:00,
2013-05-14 19:42:00,73.3,55.1,29.95,NW,321,0.0,0.0,53,0.00,,,0.00,WeatherCatV1.00B22,2013-05-14 23:42:00,
2013-05-14 19:47:00,73.2,55.0,29.95,NW,321,0.0,0.0,53,0.00,,,0.00,WeatherCatV1.00B22,2013-05-14 23:47:00,
2013-05-14 19:52:00,73.1,54.9,29.96,NW,321,0.0,0.0,53,0.00,,,0.00,WeatherCatV1.00B22,2013-05-14 23:52:00,
2013-05-14 19:57:00,72.9,54.8,29.96,SSW,194,0.0,0.0,53,0.00,,,0.00,WeatherCatV1.00B22,2013-05-14 23:57:00,
2013-05-14 20:02:00,72.7,55.1,29.96,SSW,194,0.0,0.0,54,0.00,,,0.00,WeatherCatV1.00B22,2013-05-15 00:02:00,
2013-05-14 20:07:00,72.5,54.9,29.96,SSW,194,0.0,0.0,54,0.00,,,0.00,WeatherCatV1.00B22,2013-05-15 00:07:00,
2013-05-14 20:12:00,72.3,55.2,29.96,SSW,194,0.0,0.0,55,0.00,,,0.00,WeatherCatV1.00B22,2013-05-15 00:12:00,
2013-05-14 20:17:00,72.1,55.0,29.96,SSW,194,0.0,0.0,55,0.00,,,0.00,WeatherCatV1.00B22,2013-05-15 00:17:00,
2013-05-14 20:22:00,71.9,54.8,29.96,SSW,194,0.0,0.0,55,0.00,,,0.00,WeatherCatV1.00B22,2013-05-15 00:22:00,
2013-05-14 20:27:00,71.7,54.7,29.96,SSW,194,0.0,0.0,55,0.00,,,0.00,WeatherCatV1.00B22,2013-05-15 00:27:00,
2013-05-14 20:32:00,71.5,55.0,29.96,SSW,194,0.0,0.0,56,0.00,,,0.00,WeatherCatV1.00B22,2013-05-15 00:32:00,
2013-05-14 20:37:00,71.3,55.3,29.96,SSW,194,0.0,0.0,57,0.00,,,0.00,WeatherCatV1.00B22,2013-05-15 00:37:00,
2013-05-14 20:42:00,71.1,55.1,29.96,SSW,194,0.0,0.0,57,0.00,,,0.00,WeatherCatV1.00B22,2013-05-15 00:42:00,
2013-05-14 20:47:00,70.8,54.8,29.96,SSW,194,0.0,0.0,57,0.00,,,0.00,WeatherCatV1.00B22,2013-05-15 00:47:00,
2013-05-14 20:52:00,70.6,55.1,29.96,SSW,194,0.0,0.0,58,0.00,,,0.00,WeatherCatV1.00B22,2013-05-15 00:52:00,
2013-05-14 20:57:00,70.4,55.4,29.96,SSW,194,0.0,0.0,59,0.00,,,0.00,WeatherCatV1.00B22,2013-05-15 00:57:00,
2013-05-14 21:02:00,70.1,55.6,29.96,SSW,194,0.0,0.0,60,0.00,,,0.00,WeatherCatV1.00B22,2013-05-15 01:02:00,
2013-05-14 21:07:00,69.9,55.4,29.96,SSW,194,0.0,0.0,60,0.00,,,0.00,WeatherCatV1.00B22,2013-05-15 01:07:00,
2013-05-14 21:12:00,69.7,56.1,29.97,SSW,194,0.0,0.0,62,0.00,,,0.00,WeatherCatV1.00B22,2013-05-15 01:12:00,
2013-05-14 21:17:00,69.4,56.7,29.97,SSW,194,0.0,0.0,64,0.00,,,0.00,WeatherCatV1.00B22,2013-05-15 01:17:00,
2013-05-14 21:22:00,69.0,56.3,29.97,SSW,194,0.0,0.0,64,0.00,,,0.00,WeatherCatV1.00B22,2013-05-15 01:22:00,
2013-05-14 21:27:00,68.7,56.4,29.97,SSW,194,0.0,0.0,65,0.00,,,0.00,WeatherCatV1.00B22,2013-05-15 01:27:00,
2013-05-14 21:32:00,68.5,57.5,29.97,SSW,194,0.0,0.0,68,0.00,,,0.00,WeatherCatV1.00B22,2013-05-15 01:32:00,
2013-05-14 21:37:00,68.2,57.6,29.97,SSW,194,0.0,0.0,69,0.00,,,0.00,WeatherCatV1.00B22,2013-05-15 01:37:00,
2013-05-14 21:42:00,67.9,57.7,29.97,SSW,194,0.0,0.0,70,0.00,,,0.00,WeatherCatV1.00B22,2013-05-15 01:42:00,
2013-05-14 21:47:00,67.6,57.9,29.97,SSW,194,0.0,0.0,71,0.00,,,0.00,WeatherCatV1.00B22,2013-05-15 01:47:00,
2013-05-14 21:52:00,67.4,57.7,29.97,SSW,194,0.0,0.0,71,0.00,,,0.00,WeatherCatV1.00B22,2013-05-15 01:52:00,
2013-05-14 21:57:00,67.2,57.9,29.97,SSW,194,0.0,0.0,72,0.00,,,0.00,WeatherCatV1.00B22,2013-05-15 01:57:00,
2013-05-14 22:02:00,66.9,57.6,29.98,SSW,194,0.0,0.0,72,0.00,,,0.00,WeatherCatV1.00B22,2013-05-15 02:02:00,
2013-05-14 22:07:00,66.7,57.8,29.98,SSW,194,0.0,0.0,73,0.00,,,0.00,WeatherCatV1.00B22,2013-05-15 02:07:00,
2013-05-14 22:12:00,66.5,57.9,29.98,SSW,194,0.0,0.0,74,0.00,,,0.00,WeatherCatV1.00B22,2013-05-15 02:12:00,
2013-05-14 22:17:00,66.2,57.7,29.98,SSW,195,0.0,0.0,74,0.00,,,0.00,WeatherCatV1.00B22,2013-05-15 02:17:00,
2013-05-14 22:22:00,66.0,57.8,29.98,SSW,195,0.0,0.0,75,0.00,,,0.00,WeatherCatV1.00B22,2013-05-15 02:22:00,
2013-05-14 22:27:00,65.8,57.6,29.98,SSW,195,0.0,0.0,75,0.00,,,0.00,WeatherCatV1.00B22,2013-05-15 02:27:00,
2013-05-14 22:32:00,65.5,57.7,29.98,SSW,195,0.0,0.0,76,0.00,,,0.00,WeatherCatV1.00B22,2013-05-15 02:32:00,
2013-05-14 22:37:00,65.3,57.5,29.98,SSW,195,0.0,0.0,76,0.00,,,0.00,WeatherCatV1.00B22,2013-05-15 02:37:00,
2013-05-14 22:42:00,65.1,57.7,29.98,SSW,195,0.0,0.0,77,0.00,,,0.00,WeatherCatV1.00B22,2013-05-15 02:42:00,
2013-05-14 22:47:00,64.9,57.5,29.98,SSW,195,0.0,0.0,77,0.00,,,0.00,WeatherCatV1.00B22,2013-05-15 02:47:00,
2013-05-14 22:52:00,64.7,57.3,29.98,SSW,195,0.0,0.0,77,0.00,,,0.00,WeatherCatV1.00B22,2013-05-15 02:52:00,
2013-05-14 22:57:00,64.5,57.1,29.98,SSW,195,0.0,0.0,77,0.00,,,0.00,WeatherCatV1.00B22,2013-05-15 02:57:00,
2013-05-14 23:02:00,64.4,57.4,29.98,SSW,195,0.0,0.0,78,0.00,,,0.00,WeatherCatV1.00B22,2013-05-15 03:02:00,
2013-05-14 23:07:00,64.4,57.4,29.98,SSW,195,0.0,0.0,78,0.00,,,0.00,WeatherCatV1.00B22,2013-05-15 03:07:00,
2013-05-14 23:12:00,64.3,57.3,29.98,SSW,195,0.0,0.0,78,0.00,,,0.00,WeatherCatV1.00B22,2013-05-15 03:12:00,
2013-05-14 23:17:00,64.2,57.2,29.98,SSW,195,0.0,0.0,78,0.00,,,0.00,WeatherCatV1.00B22,2013-05-15 03:17:00,
2013-05-14 23:22:00,64.1,57.4,29.98,SSW,195,0.0,0.0,79,0.00,,,0.00,WeatherCatV1.00B22,2013-05-15 03:22:00,
2013-05-14 23:27:00,64.0,57.0,29.98,SSW,195,0.0,0.0,78,0.00,,,0.00,WeatherCatV1.00B22,2013-05-15 03:27:00,
2013-05-14 23:32:00,63.9,56.9,29.97,SSW,195,0.0,0.0,78,0.00,,,0.00,WeatherCatV1.00B22,2013-05-15 03:32:00,
2013-05-14 23:37:00,63.8,56.8,29.98,SSW,195,0.0,0.0,78,0.00,,,0.00,WeatherCatV1.00B22,2013-05-15 03:37:00,
2013-05-14 23:42:00,63.8,57.2,29.97,SSW,195,0.0,0.0,79,0.00,,,0.00,WeatherCatV1.00B22,2013-05-15 03:42:00,
2013-05-14 23:47:00,63.7,57.1,29.97,SSW,195,0.0,0.0,79,0.00,,,0.00,WeatherCatV1.00B22,2013-05-15 03:47:00,
2013-05-14 23:52:00,63.7,57.1,29.97,SSW,195,0.0,0.0,79,0.00,,,0.00,WeatherCatV1.00B22,2013-05-15 03:52:00,
2013-05-14 23:57:00,63.6,57.3,29.97,SSW,195,0.0,0.0,80,0.00,,,0.00,WeatherCatV1.00B22,2013-05-15 03:57:00,